LiveATC.Net - Listen to live air traffic control over the Internet!


ICAO: KLBE  IATA: LBE   Airport: Arnold Palmer Regional Airport
City: Latrobe   State/Province: Pennsylvania
Country: United States   Continent: North America
KLBE METAR Weather: KLBE 242251Z 03007KT 20SM SKC 21/09 A3020
KLBE Flight Activity (FlightAware)
KLBE Airport Info   (iFlightPlanner)
KLBE VFR Sectional Chart   (iFlightPlanner) 
KLBE IFR Low Chart   (iFlightPlanner) 

KLBE Ground/Tower
Feed Status: UP   Listeners: 0
Listen in your browser - HTML5 player (in browser, HTML5)
Click here to listen with your own player (launches your MP3 player)
KLBE Ground/Tower Audio Archives
FacilityFrequency
Latrobe Ground121.800
Latrobe Tower125.000
Feed sponsored by: Pittsburgh Flying Club and Vee Neal Aviation

NOTICE

Unauthorized use prohibited. See LiveATC.net Terms of Service


Airport/ARTCC Code
Frequency Search
(e.g., 124.400, 128.75)
Site-wide search
 


Browse LiveATC Feeds
Top 50 LiveATC Feeds
LiveATC Feed Map
Bad Weather Areas

LiveATC FAQ
Offer LiveATC feed
Contact LiveATC.net
Press Inquiries

LiveATC on iPhone
LiveATC on Android

Windows Phone
Windows 8/10

LiveATC Mobile
(Mobile browser)

ATC Audio Archives
Interesting Recordings

LiveATC Forums


Home Page
About LiveATC.net
Make a Donation
Terms of Use
Privacy Policy

Canadian Air Freqs

AIRMETs/SIGMETs

FAA Airport Status
Nat'l Airspace Status
Arrival Demand Charts


Server Software By:
Icecast.org
Liquidsoap